Williams, OR

7:21 AM PDT on September 20, 2014 (GMT -0700)
Rogue Valley International-Medford | Change Station
CLOSE
Current Station
Airport
Location: Medford,
Elevation: 1329 ft
Nearby Weather Stations

Elev 1329 ft 42.38 °N, 122.87 °W | Updated 28 minutes ago

Clear
Clear
59 °F
Feels Like 59 °F
N
0
Wind Variable Wind from North

Today
High -- | Low -- °F
--% Chance of Precip.
Yesterday
High -- | Low -- °F
Precip. -- in
6:58 AM 7:13 PM
Waning Crescent, 12% visible
Pressure 29.95 in
Visibility 10.0 miles
Clouds Clear
Dew Point 51 °F
Humidity 75%
Rainfall 0.00 in
Snow Depth 0 in , 0 in , 0 in
UV 0 out of 12
Pollen 4.10 out of 12
Air Quality Not available.
Flu Activity Not available.
METAR KMFR 201353Z 00000KT 10SM CLR 15/11 A2998 RMK AO2 SLP140 T01500106

More Conditions Fewer Conditions

Pressure 29.95 in
Visibility 10.0 miles
Clouds Clear
Dew Point 51 °F
Humidity 75%
Rainfall 0.00 in
Snow Depth 0 in , 0 in , 0 in
UV 0 out of 12
Pollen 4.10 out of 12
Air Quality Not available.
Flu Activity Not available.
METAR KMFR 201353Z 00000KT 10SM CLR 15/11 A2998 RMK AO2 SLP140 T01500106

More Conditions Fewer Conditions

10-Day Weather Forecast

Almanac

Astronomy

Sep. 20, 2014 Rise Set
Actual Time 6:58 AM PDT 7:13 PM PDT
Civil Twilight 6:30 AM PDT 7:41 PM PDT
Nautical Twilight 5:57 AM PDT 8:14 PM PDT
Astronomical Twilight 5:23 AM PDT 8:48 PM PDT
Moon 3:39 AM PDT 5:22 PM PDT
Length of Visible Light 13h 11m
Length of Day
12h 15m
Tomorrow will be 2m 49s shorter.
Waning Crescent, 12% of the Moon is Illuminated
Today
Waning Crescent
Sep 24
New
Oct 1
First Quarter
Oct 8
Full
Oct 15
Last Quarter

Today's Extremes

State Highs State Lows

Community

WunderPhotos

Upload Photos

1,754,871 photos uploaded!

Nearby

Snow Depth

Station Depth Elevation
Sevenmile Marsh 0 in 6200 ft
Roaring River 0 in 4900 ft
Santiam Junction 0 in 3750 ft
Seine Creek 0 in 2000 ft
Arbuckle Mountain 0 in 5400 ft

Earthquake Activity

City Distance Mag. Time & Date
No recent earthquake activity has been reported nearby.
Minimum magnitude displayed is 2.5.

Coastal Water Temperatures

Place Temperature
No Stations Reporting

Nearby Weather Stations